Cocolalla, Idaho
Current Conditions -  °F | °C
As of 11:35 PM on Friday 28 Nov 2014 (Local Time) from KSZT Reporting Station
Overcast Overcast  
Wind Chill: 39°   Ceiling: 2500
Heat Index: 45°   Visibility: 10mi
Dew Point: 41°   Wind: 10mph
Humidity: 87%   Direction: 220°SW
Pressure: 29.2"   Gusts: 22mph
Location:  48.11°N, 116.62°W
Report Text: KSZT 290735Z AUTO 22009G19KT 10SM BKN025 BKN030 OVC036 07/05 A2920 RMK AO2
Loading
Personal Weather Stations






























Interactive Weather Map New forecast layout! Learn more

10-Day Weather Forecast

Advertisements
Track Severe Weather on mobile